Time;durP1;ratioP1;P1;durP2;ratioP2;P2;SDS_P1;SDS_P2;PMS_P1;PMS_P2;Temp;Humidity;BMP_temperature;BMP_pressure;BME280_temperature;BME280_humidity;BME280_pressure;Samples;Min_cycle;Max_cycle;Signal;HPM_P1;HPM_P2
2023/02/19 00:01:35;;;;;;;1.20;1.20;;;;;;;17.92;46.53;97483.84;4972496;28;20205;-89
2023/02/19 00:04:04;;;;;;;1.13;1.07;;;;;;;19.24;46.33;97715.16;4947153;29;20230;-89
2023/02/19 00:06:33;;;;;;;2.07;1.00;;;;;;;19.58;46.64;97754.91;4969404;29;20252;-91
2023/02/19 00:09:03;;;;;;;1.10;1.10;;;;;;;18.29;46.36;97557.50;4943393;29;20221;-90
2023/02/19 00:11:33;;;;;;;1.03;1.00;;;;;;;18.03;46.64;97510.63;4965848;29;20509;-90
2023/02/19 00:14:01;;;;;;;0.97;0.97;;;;;;;17.70;46.59;97458.31;4962533;28;20227;-90
2023/02/19 00:16:44;;;;;;;;;;;;;;;;;;;;;
2023/02/19 00:19:20;;;;;;;1.30;1.20;;;;;;;17.32;46.32;97379.56;4959411;29;20209;-89
2023/02/19 00:22:07;;;;;;;1.07;1.07;;;;;;;17.80;46.35;97463.84;4943949;28;20216;-90
2023/02/19 00:24:59;;;;;;;1.23;1.17;;;;;;;18.71;46.49;97613.63;4947258;29;20201;-90
2023/02/19 00:27:53;;;;;;;0.93;0.93;;;;;;;18.14;46.59;97504.28;4958234;28;20218;-90
2023/02/19 00:30:28;;;;;;;1.20;1.20;;;;;;;19.60;46.78;97767.69;4961324;29;20205;-90
2023/02/19 00:32:55;;;;;;;1.10;1.10;;;;;;;18.71;46.69;97620.41;4945698;29;20327;-90
2023/02/19 00:35:32;;;;;;;1.10;1.10;;;;;;;18.15;46.48;97532.34;4953400;29;20247;-90
2023/02/19 00:38:00;;;;;;;1.23;1.13;;;;;;;17.73;46.44;97422.84;4953548;29;20219;-90
2023/02/19 00:40:31;;;;;;;1.00;1.00;;;;;;;18.43;46.65;97577.66;4952532;29;20208;-90
2023/02/19 00:43:04;;;;;;;1.20;1.10;;;;;;;19.42;46.63;97749.97;4965684;29;20233;-90
2023/02/19 00:45:44;;;;;;;1.20;1.20;;;;;;;17.25;46.68;97363.19;4949441;29;20200;-90
2023/02/19 00:48:19;;;;;;;1.30;1.20;;;;;;;18.54;46.51;97570.47;4953418;29;20215;-90
2023/02/19 00:50:55;;;;;;;1.53;1.30;;;;;;;18.61;46.51;97582.63;4954051;29;20205;-89
2023/02/19 00:53:35;;;;;;;1.03;1.00;;;;;;;18.96;46.65;97626.56;4968917;28;20233;-90
2023/02/19 00:56:07;;;;;;;1.17;1.17;;;;;;;19.00;46.64;97648.81;4953751;29;20200;-90
2023/02/19 00:58:34;;;;;;;1.13;1.10;;;;;;;17.96;46.59;97467.91;4937306;29;20238;-90
2023/02/19 01:01:10;;;;;;;1.20;1.20;;;;;;;18.47;46.30;97555.75;4961879;29;20279;-90
2023/02/19 01:03:48;;;;;;;1.30;1.30;;;;;;;18.56;46.63;97563.78;4953894;28;20271;-90
2023/02/19 01:06:18;;;;;;;1.03;1.03;;;;;;;17.95;46.35;97461.09;4967198;29;20247;-89
2023/02/19 01:08:59;;;;;;;1.00;1.00;;;;;;;18.04;46.53;97471.66;4957024;29;20291;-90
2023/02/19 01:11:34;;;;;;;1.10;1.10;;;;;;;18.37;46.58;97525.59;4953153;29;20196;-90
2023/02/19 01:14:09;;;;;;;4.53;1.40;;;;;;;18.52;46.39;97556.81;4949149;29;20215;-90
2023/02/19 01:16:45;;;;;;;1.03;1.03;;;;;;;18.58;46.50;97555.38;4946577;29;20208;-89
2023/02/19 01:19:14;;;;;;;1.00;1.00;;;;;;;17.02;46.40;97282.59;4952285;29;20236;-90
2023/02/19 01:21:52;;;;;;;1.00;1.00;;;;;;;18.13;46.49;97469.50;4960785;28;20251;-90
2023/02/19 01:24:38;;;;;;;1.83;1.20;;;;;;;18.67;46.74;97572.72;4967445;29;20204;-89
2023/02/19 01:27:13;;;;;;;1.00;1.00;;;;;;;18.48;46.52;97547.31;4949270;29;20263;-90
2023/02/19 01:29:46;;;;;;;1.00;1.00;;;;;;;18.67;46.39;97575.25;4959594;29;20200;-89
2023/02/19 01:32:22;;;;;;;0.90;0.90;;;;;;;17.95;46.60;97438.22;4933701;29;20284;-90
2023/02/19 01:34:58;;;;;;;1.00;1.00;;;;;;;17.61;46.56;97389.31;4942246;29;20225;-90
2023/02/19 01:37:33;;;;;;;1.30;1.20;;;;;;;17.52;46.59;97366.94;4958479;29;20212;-89
2023/02/19 01:40:08;;;;;;;1.00;1.00;;;;;;;18.36;46.44;97500.97;4959915;29;20208;-90
2023/02/19 01:42:45;;;;;;;1.30;1.20;;;;;;;18.56;46.53;97539.19;4935199;29;20220;-89
2023/02/19 01:45:23;;;;;;;24.40;4.07;;;;;;;20.20;46.68;97803.31;4940514;29;20670;-90
2023/02/19 01:48:03;;;;;;;1.27;1.10;;;;;;;18.27;46.31;97476.88;4966287;29;20251;-89
2023/02/19 01:50:48;;;;;;;1.23;1.23;;;;;;;18.72;46.72;97545.78;4953154;29;20287;-90
2023/02/19 01:53:34;;;;;;;0.87;0.87;;;;;;;18.18;46.48;97466.34;4953603;28;20234;-90
2023/02/19 01:56:09;;;;;;;1.20;1.20;;;;;;;18.60;46.50;97524.91;4953712;28;20216;-89
2023/02/19 01:58:46;;;;;;;1.10;1.10;;;;;;;18.60;46.64;97509.63;4937473;29;20210;-90
2023/02/19 02:01:20;;;;;;;0.93;0.93;;;;;;;19.47;46.56;97659.28;4934316;29;20263;-89
2023/02/19 02:04:02;;;;;;;1.07;1.07;;;;;;;18.58;46.62;97488.34;4950183;29;20216;-90
2023/02/19 02:06:52;;;;;;;1.00;1.00;;;;;;;18.65;46.63;97514.09;4938879;29;20240;-90
2023/02/19 02:12:13;;;;;;;1.17;1.10;;;;;;;18.09;46.67;97429.50;4960553;28;20211;-90
2023/02/19 02:14:46;;;;;;;1.13;1.03;;;;;;;19.70;46.25;97711.16;4934035;29;20208;-90
2023/02/19 02:17:29;;;;;;;1.10;1.10;;;;;;;18.67;46.81;97535.41;4945379;29;20253;-90
2023/02/19 02:20:35;;;;;;;1.30;1.20;;;;;;;20.20;46.74;97749.72;4940122;28;20263;-89
2023/02/19 02:23:18;;;;;;;1.10;1.10;;;;;;;19.50;46.44;97633.91;4966047;28;20231;-90
2023/02/19 02:26:21;;;;;;;0.90;0.90;;;;;;;18.93;46.53;97537.31;4965602;29;20264;-89
2023/02/19 02:28:57;;;;;;;1.00;1.00;;;;;;;20.19;46.55;97750.53;4946631;29;20209;-90
2023/02/19 02:32:09;;;;;;;0.90;0.90;;;;;;;20.19;46.45;97755.63;4964874;29;20208;-89
2023/02/19 02:35:00;;;;;;;1.10;1.10;;;;;;;17.56;46.76;97294.25;4957181;29;20251;-89
2023/02/19 02:37:37;;;;;;;1.00;1.00;;;;;;;17.69;46.48;97324.44;4930638;29;20205;-90
2023/02/19 02:40:10;;;;;;;1.00;1.00;;;;;;;18.54;46.60;97427.97;4946685;29;20209;-90
2023/02/19 02:42:38;;;;;;;1.00;1.00;;;;;;;19.89;46.58;97658.38;4955656;29;20252;-90
2023/02/19 02:45:36;;;;;;;1.10;1.10;;;;;;;20.20;46.70;97698.69;4923976;29;20201;-90
2023/02/19 02:48:23;;;;;;;1.30;1.20;;;;;;;20.21;46.55;97702.97;4950563;29;20207;-90
2023/02/19 02:51:19;;;;;;;1.20;1.20;;;;;;;20.22;46.52;97716.63;4972826;28;20200;-90
2023/02/19 02:56:51;;;;;;;1.00;1.00;;;;;;;17.82;46.58;97307.19;4964020;29;20238;-90
2023/02/19 02:59:27;;;;;;;1.20;1.20;;;;;;;18.36;46.44;97379.75;4950201;29;20200;-90
2023/02/19 03:02:34;;;;;;;1.20;1.10;;;;;;;18.24;46.66;97375.00;4950723;28;20211;-90
2023/02/19 03:08:13;;;;;;;1.13;1.10;;;;;;;19.14;46.53;97514.34;4958637;29;20203;-90
2023/02/19 03:10:48;;;;;;;1.30;1.20;;;;;;;18.38;46.54;97384.91;4965969;29;20204;-89
2023/02/19 03:19:23;;;;;;;0.90;0.90;;;;;;;18.50;46.61;97429.50;4966274;29;20464;-91
2023/02/19 03:22:19;;;;;;;0.97;0.97;;;;;;;18.39;46.53;97400.25;4962992;28;20231;-90
2023/02/19 03:28:01;;;;;;;0.80;0.80;;;;;;;18.06;46.71;97313.25;4953408;29;20204;-90
2023/02/19 03:30:57;;;;;;;1.00;1.00;;;;;;;20.19;46.58;97688.44;4938207;29;20674;-90
2023/02/19 03:33:28;;;;;;;1.03;1.03;;;;;;;18.48;46.38;97425.16;4970027;28;20243;-90
2023/02/19 03:36:11;;;;;;;1.00;1.00;;;;;;;18.10;46.66;97332.06;4954271;29;20204;-90
2023/02/19 03:39:01;;;;;;;1.10;1.10;;;;;;;18.47;46.60;97385.28;4946871;29;20216;-89
2023/02/19 03:42:02;;;;;;;1.00;1.00;;;;;;;19.27;46.59;97522.56;4951886;28;20270;-90
2023/02/19 03:44:57;;;;;;;1.10;1.10;;;;;;;19.53;46.34;97569.41;4943068;28;20196;-89
2023/02/19 03:47:31;;;;;;;1.00;1.00;;;;;;;18.53;46.47;97411.81;4999555;28;20201;-90
2023/02/19 03:50:50;;;;;;;0.90;0.90;;;;;;;20.19;46.89;97678.22;4954028;29;20204;-90
2023/02/19 03:53:46;;;;;;;1.20;1.20;;;;;;;18.53;46.68;97385.50;4887999;29;20230;-90
2023/02/19 03:56:24;;;;;;;1.10;1.10;;;;;;;17.46;46.56;97198.13;4974201;28;20228;-90
2023/02/19 03:59:11;;;;;;;1.03;1.03;;;;;;;20.18;46.87;97672.25;4954785;29;20282;-90
2023/02/19 04:01:48;;;;;;;1.10;1.10;;;;;;;19.21;46.67;97529.94;4969208;29;20201;-89
2023/02/19 04:04:51;;;;;;;0.97;0.97;;;;;;;17.34;46.65;97188.31;4946709;29;20209;-90
2023/02/19 04:07:21;;;;;;;1.10;1.00;;;;;;;18.15;46.62;97349.22;4947748;29;20204;-90
2023/02/19 04:09:57;;;;;;;0.97;0.97;;;;;;;17.92;46.84;97305.91;4962081;28;20201;-89
2023/02/19 04:12:40;;;;;;;1.00;1.00;;;;;;;19.18;46.67;97506.00;4940285;29;20713;-89
2023/02/19 04:15:22;;;;;;;1.10;1.10;;;;;;;19.29;46.85;97517.53;4955767;29;20215;-89
2023/02/19 04:18:08;;;;;;;1.90;1.10;;;;;;;18.63;46.60;97406.28;4950928;29;20262;-90
2023/02/19 04:20:45;;;;;;;1.10;1.10;;;;;;;17.95;46.59;97295.84;4950636;29;20208;-90
2023/02/19 04:23:22;;;;;;;1.00;1.00;;;;;;;19.31;46.91;97560.09;4938257;28;20220;-90
2023/02/19 04:25:55;;;;;;;1.10;1.10;;;;;;;19.43;46.72;97544.41;4975424;28;20200;-90
2023/02/19 04:28:27;;;;;;;1.00;1.00;;;;;;;18.48;46.51;97387.88;4952428;29;20215;-90
2023/02/19 04:30:54;;;;;;;1.10;1.10;;;;;;;18.22;46.64;97355.44;4950584;28;20670;-90
2023/02/19 04:33:36;;;;;;;1.10;1.00;;;;;;;18.60;46.60;97436.72;4927111;29;20236;-91
2023/02/19 04:36:13;;;;;;;1.10;1.10;;;;;;;18.61;46.69;97417.19;4937694;29;20223;-90
2023/02/19 04:38:41;;;;;;;1.10;1.10;;;;;;;18.04;46.48;97304.72;4951899;28;20260;-90
2023/02/19 04:41:15;;;;;;;1.20;1.20;;;;;;;19.08;46.54;97522.63;4952226;29;20341;-90
2023/02/19 04:43:50;;;;;;;0.93;0.93;;;;;;;18.72;46.82;97455.00;4950464;29;20233;-90
2023/02/19 04:46:19;;;;;;;1.17;1.17;;;;;;;17.75;46.68;97294.19;4954123;28;20266;-89
2023/02/19 04:48:46;;;;;;;1.10;1.10;;;;;;;19.67;46.49;97596.31;4960082;28;20205;-90
2023/02/19 04:51:12;;;;;;;1.20;1.20;;;;;;;19.67;46.61;97601.41;4968719;29;20251;-89
2023/02/19 04:53:39;;;;;;;1.00;1.00;;;;;;;19.36;46.66;97562.81;4968211;28;20650;-90
2023/02/19 04:56:17;;;;;;;1.00;1.00;;;;;;;18.35;46.70;97382.22;4935572;29;20264;-90
2023/02/19 04:58:44;;;;;;;1.13;1.13;;;;;;;19.96;46.80;97677.34;4966550;29;20273;-90
2023/02/19 05:01:11;;;;;;;0.90;0.90;;;;;;;19.81;46.66;97625.75;4944106;29;20733;-90
2023/02/19 05:03:38;;;;;;;1.00;1.00;;;;;;;19.73;46.81;97614.38;4961470;28;20219;-90
2023/02/19 05:06:06;;;;;;;0.97;0.97;;;;;;;19.61;46.85;97596.97;4936608;29;20224;-89
2023/02/19 05:08:33;;;;;;;1.00;1.00;;;;;;;19.32;46.42;97577.13;4964346;28;20201;-90
2023/02/19 05:11:00;;;;;;;1.10;1.10;;;;;;;19.78;46.68;97635.84;4948579;29;20208;-89
2023/02/19 05:13:35;;;;;;;0.90;0.90;;;;;;;19.37;46.66;97567.97;4940512;29;20232;-90
2023/02/19 05:16:05;;;;;;;1.20;1.20;;;;;;;17.35;46.58;97225.59;4941731;29;20221;-89
2023/02/19 05:18:42;;;;;;;1.37;1.20;;;;;;;17.50;46.82;97235.56;4950869;29;20252;-90
2023/02/19 05:21:16;;;;;;;1.00;1.00;;;;;;;18.95;46.95;97497.47;4952894;29;20195;-90
2023/02/19 05:23:46;;;;;;;0.97;0.97;;;;;;;18.60;46.86;97434.16;4947319;29;20232;-88
2023/02/19 05:26:25;;;;;;;1.20;1.20;;;;;;;17.96;46.32;97334.06;4959709;29;20208;-89
2023/02/19 05:28:59;;;;;;;1.00;1.00;;;;;;;19.10;46.75;97515.91;4952410;29;20215;-90
2023/02/19 05:31:44;;;;;;;1.20;1.10;;;;;;;19.52;46.78;97591.50;4956011;29;20293;-90
2023/02/19 05:34:28;;;;;;;0.90;0.90;;;;;;;19.04;46.81;97518.22;4959532;28;20260;-89
2023/02/19 05:36:56;;;;;;;0.90;0.90;;;;;;;18.49;46.79;97434.53;4950486;29;20259;-90
2023/02/19 05:39:38;;;;;;;0.93;0.93;;;;;;;19.62;46.77;97615.66;4967637;28;20212;-90
2023/02/19 05:42:24;;;;;;;1.33;1.00;;;;;;;18.84;46.56;97485.16;4953839;28;20233;-89
2023/02/19 05:45:05;;;;;;;1.00;1.00;;;;;;;18.56;46.82;97456.88;4936767;29;20196;-90
2023/02/19 05:47:33;;;;;;;0.93;0.93;;;;;;;18.03;46.51;97337.72;4961725;29;20256;-91
2023/02/19 05:50:00;;;;;;;0.90;0.90;;;;;;;19.74;46.96;97639.94;4966113;28;20196;-90
2023/02/19 05:52:26;;;;;;;1.10;1.10;;;;;;;19.44;46.68;97589.44;4964459;28;20248;-90
2023/02/19 05:54:53;;;;;;;1.13;1.10;;;;;;;19.78;46.63;97661.34;4967651;28;20208;-89
2023/02/19 05:57:20;;;;;;;1.03;1.03;;;;;;;19.55;46.99;97612.00;4999665;28;20205;-90
2023/02/19 05:59:47;;;;;;;1.00;1.00;;;;;;;19.49;46.67;97606.69;4967441;28;20214;-90
2023/02/19 06:02:13;;;;;;;1.20;1.20;;;;;;;19.50;46.67;97627.91;4998177;28;20275;-90
2023/02/19 06:04:40;;;;;;;1.00;1.00;;;;;;;19.93;46.62;97712.94;4967117;28;20674;-91
2023/02/19 06:07:06;;;;;;;1.10;1.10;;;;;;;19.54;46.82;97643.41;4967038;29;20215;-90
2023/02/19 06:09:33;;;;;;;1.03;1.03;;;;;;;19.38;47.19;97602.84;4971189;28;20224;-90
2023/02/19 06:11:59;;;;;;;0.90;0.90;;;;;;;19.58;46.58;97663.13;4960320;28;20256;-90
2023/02/19 06:14:26;;;;;;;1.20;1.10;;;;;;;19.45;46.66;97635.38;4946996;29;20217;-90
2023/02/19 06:16:52;;;;;;;0.90;0.90;;;;;;;19.38;46.57;97624.91;4970078;28;20239;-91
2023/02/19 06:19:19;;;;;;;1.57;1.20;;;;;;;18.62;46.34;97501.25;4974324;28;20343;-90
2023/02/19 06:21:49;;;;;;;1.97;1.20;;;;;;;19.73;46.74;97696.84;4971503;28;20211;-90
2023/02/19 06:24:15;;;;;;;0.93;0.93;;;;;;;19.30;46.54;97629.69;4977954;28;20207;-93
2023/02/19 06:26:42;;;;;;;1.13;1.10;;;;;;;18.45;46.65;97499.72;4955660;28;20177;-94
2023/02/19 06:29:08;;;;;;;1.43;1.30;;;;;;;18.62;46.16;97525.84;4962143;28;20217;-93
2023/02/19 06:31:35;;;;;;;1.03;1.03;;;;;;;18.92;46.49;97600.94;4960629;28;20278;-92
2023/02/19 06:34:03;;;;;;;1.03;1.03;;;;;;;20.24;46.82;97787.31;4971264;28;20208;-91
2023/02/19 06:36:30;;;;;;;6.63;1.07;;;;;;;18.79;46.47;97542.66;4977887;28;20235;-90
2023/02/19 06:39:00;;;;;;;1.20;1.10;;;;;;;18.92;46.66;97593.28;4975455;28;20283;-91
2023/02/19 06:41:26;;;;;;;1.13;1.07;;;;;;;19.08;46.91;97598.19;4971103;28;20196;-91
2023/02/19 06:43:53;;;;;;;1.40;1.30;;;;;;;18.85;46.66;97556.50;4992917;28;20219;-91
2023/02/19 06:46:19;;;;;;;1.00;1.00;;;;;;;19.98;46.63;97770.97;5006265;28;20192;-90
2023/02/19 06:48:46;;;;;;;1.27;1.17;;;;;;;19.75;46.68;97745.38;4977969;28;20264;-92
2023/02/19 06:51:14;;;;;;;1.27;1.17;;;;;;;18.12;46.93;97476.25;4975440;28;20248;-91
2023/02/19 06:53:41;;;;;;;1.10;1.10;;;;;;;19.00;46.75;97610.59;4970819;28;20209;-91
2023/02/19 06:56:34;;;;;;;1.20;1.10;;;;;;;20.23;46.94;97828.06;4984074;28;20240;-91
2023/02/19 06:59:02;;;;;;;1.10;1.00;;;;;;;18.82;46.87;97586.06;4965527;28;20200;-90
2023/02/19 07:01:29;;;;;;;1.17;1.10;;;;;;;19.29;46.60;97660.22;4977993;28;20232;-91
2023/02/19 07:03:56;;;;;;;1.30;1.20;;;;;;;18.91;46.88;97610.22;4975424;28;20416;-90
2023/02/19 07:06:23;;;;;;;1.53;1.30;;;;;;;19.06;46.66;97654.16;4977924;28;20202;-89
2023/02/19 07:08:50;;;;;;;3.60;1.10;;;;;;;18.80;46.78;97631.81;4977762;28;20249;-91
2023/02/19 07:11:19;;;;;;;2.63;1.00;;;;;;;18.78;47.97;97614.75;4972662;28;20185;-91
2023/02/19 07:13:46;;;;;;;1.20;1.10;;;;;;;19.36;47.58;97729.31;4976016;28;20288;-92
2023/02/19 07:16:13;;;;;;;7.97;1.50;;;;;;;18.87;47.27;97640.59;4961496;28;20236;-92
2023/02/19 07:18:39;;;;;;;2.70;1.10;;;;;;;19.42;48.27;97729.56;4962019;28;20220;-92
2023/02/19 07:21:12;;;;;;;6.40;1.57;;;;;;;19.59;47.97;97738.78;4960927;28;20220;-91
2023/02/19 07:23:39;;;;;;;1.70;1.17;;;;;;;19.42;47.79;97713.44;4977345;28;20215;-92
2023/02/19 07:26:13;;;;;;;2.77;1.30;;;;;;;20.27;47.80;97855.44;4977307;28;20240;-92
2023/02/19 07:28:43;;;;;;;2.00;1.10;;;;;;;19.21;47.81;97682.78;4962145;28;20204;-92
2023/02/19 07:36:33;;;;;;;4.70;1.20;;;;;;;19.47;47.55;97719.56;5422618;23;20259;-91
2023/02/19 07:39:00;;;;;;;3.70;1.50;;;;;;;19.03;47.63;97669.31;4969029;28;20212;-93
2023/02/19 07:41:26;;;;;;;7.70;1.70;;;;;;;19.91;47.60;97797.03;4995429;28;20199;-90
2023/02/19 07:43:53;;;;;;;4.83;1.67;;;;;;;20.20;47.22;97871.34;4965243;28;20228;-90
2023/02/19 07:46:19;;;;;;;5.37;1.90;;;;;;;19.94;47.35;97822.66;4970267;28;20204;-90
2023/02/19 07:48:46;;;;;;;2.60;1.50;;;;;;;19.90;47.31;97807.19;4967578;28;20215;-90
2023/02/19 07:51:17;;;;;;;7.80;1.77;;;;;;;19.23;47.53;97695.59;4975863;28;20296;-91
2023/02/19 07:53:45;;;;;;;3.53;1.53;;;;;;;19.27;47.79;97728.09;4956376;28;20220;-90
2023/02/19 07:56:11;;;;;;;3.47;1.27;;;;;;;19.62;47.47;97773.72;4947636;28;20239;-91
2023/02/19 07:58:38;;;;;;;3.70;1.40;;;;;;;19.11;47.48;97682.34;4966591;28;20212;-90
2023/02/19 08:01:06;;;;;;;6.60;1.90;;;;;;;19.08;47.56;97685.66;4972185;28;20280;-93
2023/02/19 08:03:34;;;;;;;8.53;1.60;;;;;;;19.10;47.50;97688.28;4971465;28;20235;-92
2023/02/19 08:06:01;;;;;;;3.67;1.40;;;;;;;19.49;47.55;97763.84;4968923;28;20193;-92
2023/02/19 08:08:27;;;;;;;6.40;2.00;;;;;;;19.42;47.66;97765.25;4975024;28;20279;-90
2023/02/19 08:13:39;;;;;;;3.50;1.50;;;;;;;19.85;47.53;97822.31;4969503;28;20212;-91
2023/02/19 08:16:07;;;;;;;4.80;1.57;;;;;;;20.37;47.49;97903.53;4976645;28;20215;-90
2023/02/19 08:18:46;;;;;;;3.90;1.60;;;;;;;18.96;47.36;97676.63;4976935;28;20212;-92
2023/02/19 08:21:12;;;;;;;4.73;1.50;;;;;;;19.34;47.48;97741.16;4978974;28;20205;-92
2023/02/19 08:23:39;;;;;;;8.63;1.87;;;;;;;19.25;47.45;97725.44;4977988;28;20211;-92
2023/02/19 08:26:06;;;;;;;9.60;2.17;;;;;;;18.90;47.51;97672.16;4978783;28;20184;-92
2023/02/19 08:28:32;;;;;;;6.27;1.80;;;;;;;19.45;47.36;97757.72;4978952;28;20256;-92
2023/02/19 08:31:00;;;;;;;8.87;2.10;;;;;;;19.27;47.64;97756.13;4976789;28;20256;-92
2023/02/19 08:33:27;;;;;;;12.87;2.23;;;;;;;19.24;47.31;97750.84;4978226;28;20212;-92
2023/02/19 08:35:54;;;;;;;12.60;2.43;;;;;;;20.17;47.50;97901.84;4977256;28;20228;-90
2023/02/19 08:38:20;;;;;;;5.60;1.73;;;;;;;19.23;47.31;97744.00;4978091;28;20185;-92
2023/02/19 08:40:47;;;;;;;9.17;1.97;;;;;;;19.46;47.69;97781.56;4977335;28;20203;-90
2023/02/19 08:43:14;;;;;;;4.23;1.90;;;;;;;18.88;47.65;97683.94;4977102;28;20211;-91
2023/02/19 08:45:43;;;;;;;2.70;1.33;;;;;;;18.51;48.77;97636.50;4972629;28;20196;-91
2023/02/19 08:48:13;;;;;;;2.97;1.30;;;;;;;20.27;49.65;97927.78;4978757;28;20216;-93
2023/02/19 08:50:39;;;;;;;3.00;1.37;;;;;;;18.81;49.37;97673.44;4955485;28;20189;-91
2023/02/19 08:53:06;;;;;;;4.53;1.30;;;;;;;19.00;49.31;97711.59;4971021;28;20272;-90
2023/02/19 08:55:32;;;;;;;8.50;1.57;;;;;;;19.90;50.45;97855.66;4973993;28;20212;-91
2023/02/19 08:57:59;;;;;;;6.53;1.50;;;;;;;19.88;50.81;97849.59;4974518;28;20209;-90
2023/02/19 09:00:26;;;;;;;3.57;1.60;;;;;;;19.93;51.42;97866.81;4953352;28;20192;-91
2023/02/19 09:02:53;;;;;;;4.00;1.67;;;;;;;19.32;50.86;97764.81;4967585;28;20247;-90
2023/02/19 09:05:19;;;;;;;4.53;1.43;;;;;;;18.97;51.25;97725.09;4962430;28;20192;-91
2023/02/19 09:07:46;;;;;;;2.77;1.60;;;;;;;19.07;50.94;97711.91;4963254;28;20201;-89
2023/02/19 09:10:12;;;;;;;4.90;1.60;;;;;;;19.08;50.56;97736.59;4962059;28;20213;-91
2023/02/19 09:12:39;;;;;;;2.10;1.37;;;;;;;19.31;50.57;97794.53;4962073;28;20292;-91
2023/02/19 09:15:06;;;;;;;4.10;1.40;;;;;;;19.49;50.23;97815.69;4960253;28;20185;-91
2023/02/19 09:17:33;;;;;;;6.10;1.57;;;;;;;18.87;49.91;97702.59;4945626;28;20268;-91
2023/02/19 09:19:59;;;;;;;4.70;1.47;;;;;;;19.06;50.51;97735.66;4976633;28;20190;-91
2023/02/19 09:22:26;;;;;;;6.53;1.33;;;;;;;19.66;49.80;97835.09;4970202;28;20232;-91
2023/02/19 09:24:52;;;;;;;2.77;1.30;;;;;;;18.32;49.90;97628.88;4974942;28;20187;-89
2023/02/19 09:27:19;;;;;;;4.77;1.40;;;;;;;19.86;49.24;97890.34;4966075;28;20204;-90
2023/02/19 09:29:46;;;;;;;2.33;1.20;;;;;;;19.25;49.29;97788.28;4973600;28;20189;-91
2023/02/19 09:32:12;;;;;;;3.37;1.53;;;;;;;20.37;49.45;97982.66;4966798;28;20272;-91
2023/02/19 09:34:39;;;;;;;3.43;1.40;;;;;;;20.34;49.57;97975.72;4965319;28;20193;-92
2023/02/19 09:37:06;;;;;;;3.47;1.30;;;;;;;19.07;49.24;97759.47;4974560;28;20245;-91
2023/02/19 09:39:33;;;;;;;3.27;1.30;;;;;;;20.35;49.26;97984.25;4976686;28;20195;-89
2023/02/19 09:42:17;;;;;;;2.30;1.37;;;;;;;18.87;49.10;97739.91;4954711;28;20188;-92
2023/02/19 09:44:47;;;;;;;2.20;1.47;;;;;;;19.44;48.73;97835.00;4978020;28;20251;-92
2023/02/19 09:47:21;;;;;;;3.93;1.40;;;;;;;19.28;49.02;97817.34;4950166;28;20213;-91
2023/02/19 09:49:50;;;;;;;2.50;1.43;;;;;;;19.37;48.90;97829.59;4961826;28;20215;-91
2023/02/19 09:52:31;;;;;;;1.70;1.10;;;;;;;18.98;48.90;97776.91;4976098;28;20201;-92
2023/02/19 09:55:22;;;;;;;5.10;1.53;;;;;;;19.19;49.05;97801.59;4962790;28;20220;-92
2023/02/19 09:57:48;;;;;;;3.07;1.53;;;;;;;19.50;48.83;97858.22;4959434;28;20264;-92
2023/02/19 10:00:23;;;;;;;3.00;1.40;;;;;;;19.04;49.25;97790.75;4973304;28;20228;-91
2023/02/19 10:02:53;;;;;;;3.43;1.57;;;;;;;19.73;49.12;97907.63;4961639;28;20220;-91
2023/02/19 10:05:30;;;;;;;2.47;1.47;;;;;;;18.97;49.02;97767.50;4972246;28;20205;-90
2023/02/19 10:07:57;;;;;;;2.90;1.63;;;;;;;19.94;48.71;97952.78;4954925;28;20204;-90
2023/02/19 10:10:27;;;;;;;4.47;2.03;;;;;;;19.85;49.02;97931.97;4954311;28;20201;-89
2023/02/19 10:12:55;;;;;;;4.07;1.70;;;;;;;20.31;48.87;98015.59;4957027;28;20212;-91
2023/02/19 10:15:33;;;;;;;8.10;1.40;;;;;;;20.32;48.97;98019.88;4964140;28;20224;-90
2023/02/19 10:18:00;;;;;;;4.23;1.60;;;;;;;19.51;48.84;97890.53;4971726;28;20217;-91
2023/02/19 10:20:27;;;;;;;7.70;1.63;;;;;;;19.37;48.80;97862.72;4942032;29;20234;-90
2023/02/19 10:23:05;;;;;;;3.30;1.50;;;;;;;19.49;48.77;97881.09;4967731;28;20219;-91
2023/02/19 10:25:32;;;;;;;3.63;1.80;;;;;;;18.90;49.30;97813.88;4943998;28;20184;-89
2023/02/19 10:27:59;;;;;;;2.67;1.60;;;;;;;19.19;49.51;97834.72;4968058;28;20192;-91
2023/02/19 10:30:31;;;;;;;11.57;1.80;;;;;;;19.78;49.56;97935.06;4970954;28;20196;-93
2023/02/19 10:32:58;;;;;;;4.17;1.70;;;;;;;20.33;49.73;98013.94;4973804;28;20228;-91
2023/02/19 10:35:24;;;;;;;5.33;1.80;;;;;;;19.87;50.69;97935.44;4970287;28;20201;-90
2023/02/19 10:37:51;;;;;;;5.70;1.60;;;;;;;19.89;50.67;97932.97;4972040;28;20259;-90
2023/02/19 10:40:21;;;;;;;5.33;1.73;;;;;;;19.10;50.52;97791.00;4972874;28;20188;-91
2023/02/19 10:42:55;;;;;;;4.33;1.60;;;;;;;19.68;50.81;97898.91;4954408;28;20243;-91
2023/02/19 10:45:38;;;;;;;5.63;1.60;;;;;;;19.18;50.44;97804.06;4954070;28;20195;-91
2023/02/19 10:48:06;;;;;;;5.47;1.70;;;;;;;20.13;50.23;97948.47;4966656;28;20213;-91
2023/02/19 10:50:45;;;;;;;3.87;1.57;;;;;;;20.10;50.19;97946.59;4967563;28;20242;-90
2023/02/19 10:53:22;;;;;;;2.60;1.60;;;;;;;19.28;50.14;97798.63;4973170;28;20264;-91
2023/02/19 10:56:24;;;;;;;2.50;1.43;;;;;;;20.07;49.94;97933.72;4957158;28;20220;-90
2023/02/19 10:58:51;;;;;;;3.00;1.20;;;;;;;19.68;49.49;97855.56;4967199;28;20192;-91
2023/02/19 11:01:21;;;;;;;7.57;1.70;;;;;;;20.59;49.67;98023.56;4977286;28;20245;-91
2023/02/19 11:03:51;;;;;;;4.80;1.70;;;;;;;19.55;49.33;97840.56;4968611;28;20240;-90
2023/02/19 11:06:19;;;;;;;3.73;1.50;;;;;;;20.16;49.21;97948.59;4967513;28;20202;-91
2023/02/19 11:08:57;;;;;;;18.63;1.70;;;;;;;19.88;49.26;97914.25;4957465;28;20204;-91
2023/02/19 11:11:42;;;;;;;8.03;1.73;;;;;;;19.60;49.30;97857.78;4973022;28;20180;-91
2023/02/19 11:14:14;;;;;;;4.50;1.57;;;;;;;19.89;48.87;97910.00;4968267;28;20216;-92
2023/02/19 11:17:03;;;;;;;4.80;1.53;;;;;;;19.62;49.04;97873.16;4953064;28;20284;-91
2023/02/19 11:19:43;;;;;;;3.30;1.60;;;;;;;19.10;49.16;97780.81;4972943;28;20187;-90
2023/02/19 11:22:31;;;;;;;4.40;1.87;;;;;;;20.56;49.15;98038.75;4974217;28;20288;-91
2023/02/19 11:25:24;;;;;;;4.53;1.70;;;;;;;20.56;49.09;98026.00;4975456;28;20622;-90
2023/02/19 11:28:16;;;;;;;1.50;1.40;;;;;;;20.54;49.20;98031.03;4972618;28;20235;-91
2023/02/19 11:30:44;;;;;;;3.53;1.20;;;;;;;19.40;49.03;97850.13;4971461;28;20211;-90
2023/02/19 11:33:20;;;;;;;4.13;1.53;;;;;;;20.53;49.05;98028.41;4969856;28;20200;-91
2023/02/19 11:35:48;;;;;;;2.73;1.33;;;;;;;19.25;48.78;97791.69;4972911;28;20211;-91
2023/02/19 11:38:16;;;;;;;2.47;1.40;;;;;;;20.50;48.88;98001.09;4956128;28;20221;-92
2023/02/19 11:41:32;;;;;;;4.67;1.40;;;;;;;20.50;48.80;98010.41;4953772;28;20211;-92
2023/02/19 11:44:04;;;;;;;3.07;1.47;;;;;;;20.49;49.08;98003.56;4956427;28;20271;-94
2023/02/19 11:47:06;;;;;;;2.60;1.50;;;;;;;19.58;49.12;97853.44;4977748;28;20208;-92
2023/02/19 11:49:58;;;;;;;2.53;1.23;;;;;;;20.46;49.27;98011.97;4955244;28;20256;-93
2023/02/19 11:53:06;;;;;;;2.37;1.50;;;;;;;20.45;48.92;97997.47;4980896;28;20345;-92
2023/02/19 11:55:45;;;;;;;2.50;1.30;;;;;;;20.44;49.04;98018.72;4971793;28;20219;-93
2023/02/19 11:58:15;;;;;;;2.27;1.20;;;;;;;20.44;49.23;98015.28;4958433;28;20228;-93
2023/02/19 12:01:10;;;;;;;1.83;1.30;;;;;;;20.42;49.09;98009.22;4980198;28;20224;-93
2023/02/19 12:06:44;;;;;;;5.90;1.77;;;;;;;20.41;49.17;98026.25;5668232;23;20222;-93
2023/02/19 12:09:17;;;;;;;3.03;1.60;;;;;;;19.32;49.11;97859.09;4996207;28;20207;-91
2023/02/19 12:12:00;;;;;;;4.10;1.40;;;;;;;19.43;48.75;97857.88;4982289;28;20215;-92
2023/02/19 12:15:05;;;;;;;5.83;1.40;;;;;;;20.38;48.98;98025.22;4977058;28;20188;-91
2023/02/19 12:18:08;;;;;;;4.50;1.67;;;;;;;20.29;48.91;98022.28;4981063;28;20272;-93
2023/02/19 12:32:02;;;;;;;3.47;1.40;;;;;;;20.33;49.17;98047.13;5092933;23;20281;-90
2023/02/19 12:35:03;;;;;;;4.57;1.40;;;;;;;20.33;49.33;98065.88;4978930;28;20212;-91
2023/02/19 12:37:33;;;;;;;3.30;1.50;;;;;;;20.35;49.57;98055.72;4971007;28;20272;-90
2023/02/19 12:40:09;;;;;;;1.80;1.50;;;;;;;20.35;49.18;98059.19;4977497;28;20243;-90
2023/02/19 12:42:54;;;;;;;3.60;1.60;;;;;;;19.36;49.20;97878.84;4965282;28;20248;-90
2023/02/19 12:45:25;;;;;;;1.90;1.53;;;;;;;19.90;49.20;97971.28;4992429;28;20184;-91
2023/02/19 12:47:58;;;;;;;4.07;1.90;;;;;;;18.79;49.50;97780.31;4979104;28;20224;-90
2023/02/19 12:50:26;;;;;;;1.90;1.47;;;;;;;20.24;49.73;98031.44;4972176;28;20197;-91